Zahedan International Airport
OIZH : now visible

Airfield :











YOU CAN JOIN US ON...

 
LOGIN :

Register | Disclaimer

   EN    FR    IT 

 









Legend :    VFR   Marginal VFR   IFR   Intensive IFR   Very Intensive IFR
Visi :
Ceiling :
>= 8 km
>= 3000ft
5 to 8 km
1000 to 3000 ft
1500m to 5 km
500 to 1000 ft
800 to 1500m
200 to 500 ft
< 800m
< 200 ft
Symbols :   Thunderstorms  Fog  Heavy snow  Heavy precipitations  Wind > 20 kt







- Airport Elevation : 4564 ft
- IATA code : ZAH


OIZH - Zahedan International

CURRENT METAR :
  • 180530Z 04012KT CAVOK 31/M00 Q1013 A2992

EXPIRED METARs :
  • 180500Z 02008KT CAVOK 31/01 Q1013 A2992 NOSIG
  • 180430Z 03008KT CAVOK 30/01 Q1013 A2992
  • 180400Z 02006KT CAVOK 30/02 Q1013 A2992 NOSIG
  • 180330Z 00000KT CAVOK 29/02 Q1013 A2992
  • 180300Z 00000KT CAVOK 26/02 Q1013 A2992 NOSIG

TAF TAF OIZH
Valid from the 18 at 00:00 until the 19 at 06:00 UTC


172300Z 1800/1906 06010KT 8000 NSC
TEMPO 1807/1815 06018KT
OIIX FIR / Asia



MET'MAP, your aeronautical weather chart ! - Copyright ORBIFLY December 2007 - Disclaimer

ORBIFLY MET'MAP TEAM :

Programming & Development : Alexandra Zaïnal
Concept & Development : Baudouin d'Aumeries
Co-Development & Prog : Marc-Olivier Méhu
Technical & hardware support : Manuel Goepfert

Contact : metmap@orbifly.com




SOURCES & CREDITS :

   NOAA       Earth
Advisory